sensor_id;sensor_type;location;lat;lon;timestamp;pressure;altitude;pressure_sealevel;temperature;humidity
74346;BME280;62776;50.518;6.732;2023-07-28T00:02:06;95700.97;;;16.76;100.00
74346;BME280;62776;50.518;6.732;2023-07-28T00:04:52;95713.19;;;16.77;100.00
74346;BME280;62776;50.518;6.732;2023-07-28T00:07:39;95712.41;;;16.75;100.00
74346;BME280;62776;50.518;6.732;2023-07-28T00:10:31;95707.31;;;16.72;100.00
74346;BME280;62776;50.518;6.732;2023-07-28T00:13:19;95704.75;;;16.71;100.00
74346;BME280;62776;50.518;6.732;2023-07-28T00:16:07;95703.88;;;16.70;100.00
74346;BME280;62776;50.518;6.732;2023-07-28T00:18:54;95700.34;;;16.71;100.00
74346;BME280;62776;50.518;6.732;2023-07-28T00:21:42;95710.94;;;16.70;100.00
74346;BME280;62776;50.518;6.732;2023-07-28T00:24:30;95708.31;;;16.70;100.00
74346;BME280;62776;50.518;6.732;2023-07-28T00:27:18;95703.75;;;16.73;100.00
74346;BME280;62776;50.518;6.732;2023-07-28T00:30:07;95717.38;;;16.63;100.00
74346;BME280;62776;50.518;6.732;2023-07-28T00:32:54;95718.09;;;16.66;100.00
74346;BME280;62776;50.518;6.732;2023-07-28T00:35:42;95713.63;;;16.68;100.00
74346;BME280;62776;50.518;6.732;2023-07-28T00:38:31;95704.84;;;16.69;100.00
74346;BME280;62776;50.518;6.732;2023-07-28T00:41:18;95700.50;;;16.68;100.00
74346;BME280;62776;50.518;6.732;2023-07-28T00:44:05;95699.63;;;16.68;100.00
74346;BME280;62776;50.518;6.732;2023-07-28T00:46:53;95698.09;;;16.64;100.00
74346;BME280;62776;50.518;6.732;2023-07-28T00:49:40;95693.72;;;16.64;100.00
74346;BME280;62776;50.518;6.732;2023-07-28T00:52:28;95686.84;;;16.62;100.00
74346;BME280;62776;50.518;6.732;2023-07-28T00:55:16;95686.91;;;16.60;100.00
74346;BME280;62776;50.518;6.732;2023-07-28T00:58:02;95693.13;;;16.58;100.00
74346;BME280;62776;50.518;6.732;2023-07-28T01:00:54;95700.94;;;16.59;100.00
74346;BME280;62776;50.518;6.732;2023-07-28T01:03:42;95698.16;;;16.62;100.00
74346;BME280;62776;50.518;6.732;2023-07-28T01:09:43;95693.84;;;16.61;100.00
74346;BME280;62776;50.518;6.732;2023-07-28T01:12:35;95681.34;;;16.66;100.00
74346;BME280;62776;50.518;6.732;2023-07-28T01:15:26;95688.31;;;16.67;100.00
74346;BME280;62776;50.518;6.732;2023-07-28T01:18:15;95686.53;;;16.68;100.00
74346;BME280;62776;50.518;6.732;2023-07-28T01:21:05;95693.00;;;16.61;100.00
74346;BME280;62776;50.518;6.732;2023-07-28T01:27:28;95702.50;;;16.63;100.00
74346;BME280;62776;50.518;6.732;2023-07-28T01:30:15;95697.09;;;16.66;100.00
74346;BME280;62776;50.518;6.732;2023-07-28T01:33:05;95686.59;;;16.66;100.00
74346;BME280;62776;50.518;6.732;2023-07-28T01:35:53;95689.22;;;16.66;100.00
74346;BME280;62776;50.518;6.732;2023-07-28T01:38:40;95684.75;;;16.68;100.00
74346;BME280;62776;50.518;6.732;2023-07-28T01:41:27;95687.31;;;16.70;100.00
74346;BME280;62776;50.518;6.732;2023-07-28T01:44:14;95683.75;;;16.71;100.00
74346;BME280;62776;50.518;6.732;2023-07-28T01:47:00;95691.63;;;16.71;100.00
74346;BME280;62776;50.518;6.732;2023-07-28T01:49:58;95694.09;;;16.74;100.00
74346;BME280;62776;50.518;6.732;2023-07-28T01:52:47;95690.47;;;16.76;100.00
74346;BME280;62776;50.518;6.732;2023-07-28T01:56:15;95699.38;;;16.55;100.00
74346;BME280;62776;50.518;6.732;2023-07-28T01:59:01;95697.44;;;16.77;100.00
74346;BME280;62776;50.518;6.732;2023-07-28T02:01:47;95695.44;;;16.82;100.00
74346;BME280;62776;50.518;6.732;2023-07-28T02:04:34;95702.41;;;16.83;100.00
74346;BME280;62776;50.518;6.732;2023-07-28T02:07:21;95701.41;;;16.86;100.00
74346;BME280;62776;50.518;6.732;2023-07-28T02:10:07;95700.47;;;16.87;100.00
74346;BME280;62776;50.518;6.732;2023-07-28T02:12:55;95693.72;;;16.81;100.00
74346;BME280;62776;50.518;6.732;2023-07-28T02:15:41;95699.53;;;16.88;100.00
74346;BME280;62776;50.518;6.732;2023-07-28T02:18:32;95700.53;;;16.85;100.00
74346;BME280;62776;50.518;6.732;2023-07-28T02:21:19;95702.16;;;16.88;100.00
74346;BME280;62776;50.518;6.732;2023-07-28T02:24:06;95699.44;;;16.89;100.00
74346;BME280;62776;50.518;6.732;2023-07-28T02:26:53;95698.69;;;16.87;100.00
74346;BME280;62776;50.518;6.732;2023-07-28T02:29:43;95697.06;;;16.85;100.00
74346;BME280;62776;50.518;6.732;2023-07-28T02:32:35;95693.53;;;16.86;100.00
74346;BME280;62776;50.518;6.732;2023-07-28T02:35:27;95695.25;;;16.49;100.00
74346;BME280;62776;50.518;6.732;2023-07-28T02:38:16;95695.59;;;16.79;100.00
74346;BME280;62776;50.518;6.732;2023-07-28T02:41:02;95697.06;;;16.85;100.00
74346;BME280;62776;50.518;6.732;2023-07-28T02:43:54;95694.16;;;16.91;100.00
74346;BME280;62776;50.518;6.732;2023-07-28T02:46:50;95690.66;;;16.90;100.00
74346;BME280;62776;50.518;6.732;2023-07-28T02:49:37;95691.09;;;17.00;100.00
74346;BME280;62776;50.518;6.732;2023-07-28T02:52:26;95687.50;;;17.01;100.00
74346;BME280;62776;50.518;6.732;2023-07-28T02:55:14;95689.28;;;17.00;100.00
74346;BME280;62776;50.518;6.732;2023-07-28T02:58:02;95691.91;;;17.00;100.00
74346;BME280;62776;50.518;6.732;2023-07-28T03:00:51;95690.22;;;16.99;100.00
74346;BME280;62776;50.518;6.732;2023-07-28T03:03:46;95690.22;;;16.99;100.00
74346;BME280;62776;50.518;6.732;2023-07-28T03:06:37;95688.38;;;17.01;100.00
74346;BME280;62776;50.518;6.732;2023-07-28T03:09:25;95693.47;;;17.04;100.00
74346;BME280;62776;50.518;6.732;2023-07-28T03:12:12;95702.25;;;17.03;100.00
74346;BME280;62776;50.518;6.732;2023-07-28T03:15:00;95696.09;;;17.04;100.00
74346;BME280;62776;50.518;6.732;2023-07-28T03:17:53;95690.16;;;16.65;100.00
74346;BME280;62776;50.518;6.732;2023-07-28T03:20:45;95700.78;;;16.98;100.00
74346;BME280;62776;50.518;6.732;2023-07-28T03:23:34;95700.59;;;17.02;100.00
74346;BME280;62776;50.518;6.732;2023-07-28T03:26:21;95701.34;;;17.04;100.00
74346;BME280;62776;50.518;6.732;2023-07-28T03:29:08;95710.94;;;17.05;100.00
74346;BME280;62776;50.518;6.732;2023-07-28T03:31:54;95708.13;;;17.08;100.00
74346;BME280;62776;50.518;6.732;2023-07-28T03:34:40;95701.97;;;17.09;100.00
74346;BME280;62776;50.518;6.732;2023-07-28T03:37:29;95703.53;;;17.14;100.00
74346;BME280;62776;50.518;6.732;2023-07-28T03:40:26;95693.03;;;17.14;100.00
74346;BME280;62776;50.518;6.732;2023-07-28T03:43:15;95696.56;;;17.13;100.00
74346;BME280;62776;50.518;6.732;2023-07-28T03:46:04;95700.19;;;17.10;100.00
74346;BME280;62776;50.518;6.732;2023-07-28T03:48:53;95700.25;;;17.08;100.00
74346;BME280;62776;50.518;6.732;2023-07-28T03:51:40;95700.81;;;17.15;100.00
74346;BME280;62776;50.518;6.732;2023-07-28T03:54:30;95709.78;;;17.11;100.00
74346;BME280;62776;50.518;6.732;2023-07-28T03:57:20;95701.06;;;17.10;100.00
74346;BME280;62776;50.518;6.732;2023-07-28T04:00:10;95703.69;;;17.10;100.00
74346;BME280;62776;50.518;6.732;2023-07-28T04:03:00;95710.47;;;17.15;100.00
74346;BME280;62776;50.518;6.732;2023-07-28T04:05:47;95706.16;;;17.14;100.00
74346;BME280;62776;50.518;6.732;2023-07-28T04:08:40;95706.00;;;17.17;100.00
74346;BME280;62776;50.518;6.732;2023-07-28T04:11:47;95709.69;;;17.13;100.00
74346;BME280;62776;50.518;6.732;2023-07-28T04:14:33;95709.41;;;17.19;100.00
74346;BME280;62776;50.518;6.732;2023-07-28T04:17:20;95707.47;;;17.22;100.00
74346;BME280;62776;50.518;6.732;2023-07-28T04:20:17;95697.34;;;17.15;100.00
74346;BME280;62776;50.518;6.732;2023-07-28T04:23:07;95712.66;;;17.24;100.00
74346;BME280;62776;50.518;6.732;2023-07-28T04:25:56;95718.03;;;17.21;100.00
74346;BME280;62776;50.518;6.732;2023-07-28T04:28:51;95724.00;;;17.24;100.00
74346;BME280;62776;50.518;6.732;2023-07-28T04:31:46;95718.03;;;17.21;100.00
74346;BME280;62776;50.518;6.732;2023-07-28T04:34:48;95722.16;;;17.26;100.00
74346;BME280;62776;50.518;6.732;2023-07-28T04:37:40;95722.22;;;17.25;100.00
74346;BME280;62776;50.518;6.732;2023-07-28T04:40:42;95730.88;;;17.27;100.00
74346;BME280;62776;50.518;6.732;2023-07-28T04:43:29;95730.72;;;17.30;100.00
74346;BME280;62776;50.518;6.732;2023-07-28T04:46:14;95728.56;;;17.38;100.00
74346;BME280;62776;50.518;6.732;2023-07-28T04:49:14;95728.72;;;17.35;100.00
74346;BME280;62776;50.518;6.732;2023-07-28T04:52:03;95733.97;;;17.35;100.00
74346;BME280;62776;50.518;6.732;2023-07-28T04:54:56;95731.25;;;17.36;100.00
74346;BME280;62776;50.518;6.732;2023-07-28T04:57:43;95732.72;;;17.42;100.00
74346;BME280;62776;50.518;6.732;2023-07-28T05:00:37;95734.34;;;17.44;100.00
74346;BME280;62776;50.518;6.732;2023-07-28T05:03:25;95736.81;;;17.47;100.00
74346;BME280;62776;50.518;6.732;2023-07-28T05:06:28;95745.56;;;17.48;100.00
74346;BME280;62776;50.518;6.732;2023-07-28T05:09:14;95757.16;;;17.44;100.00
74346;BME280;62776;50.518;6.732;2023-07-28T05:12:01;95757.78;;;17.49;100.00
74346;BME280;62776;50.518;6.732;2023-07-28T05:14:47;95759.28;;;17.54;100.00
74346;BME280;62776;50.518;6.732;2023-07-28T05:17:33;95753.72;;;17.60;100.00
74346;BME280;62776;50.518;6.732;2023-07-28T05:20:23;95750.25;;;17.60;100.00
74346;BME280;62776;50.518;6.732;2023-07-28T05:23:09;95744.59;;;17.67;100.00
74346;BME280;62776;50.518;6.732;2023-07-28T05:26:01;95752.47;;;17.67;100.00
74346;BME280;62776;50.518;6.732;2023-07-28T05:28:49;95752.38;;;17.69;100.00
74346;BME280;62776;50.518;6.732;2023-07-28T05:31:37;95762.84;;;17.71;100.00
74346;BME280;62776;50.518;6.732;2023-07-28T05:34:31;95767.50;;;17.65;100.00
74346;BME280;62776;50.518;6.732;2023-07-28T05:37:20;95755.00;;;17.69;100.00
74346;BME280;62776;50.518;6.732;2023-07-28T05:40:16;95764.47;;;17.73;100.00
74346;BME280;62776;50.518;6.732;2023-07-28T05:43:06;95764.38;;;17.75;100.00
74346;BME280;62776;50.518;6.732;2023-07-28T05:45:59;95771.09;;;17.80;100.00
74346;BME280;62776;50.518;6.732;2023-07-28T05:48:48;95769.94;;;17.86;100.00
74346;BME280;62776;50.518;6.732;2023-07-28T05:51:34;95762.75;;;17.89;100.00
74346;BME280;62776;50.518;6.732;2023-07-28T05:54:22;95770.38;;;17.94;100.00
74346;BME280;62776;50.518;6.732;2023-07-28T05:57:09;95769.06;;;18.02;100.00
74346;BME280;62776;50.518;6.732;2023-07-28T05:59:55;95767.06;;;18.07;100.00
74346;BME280;62776;50.518;6.732;2023-07-28T06:02:42;95775.56;;;18.12;100.00
74346;BME280;62776;50.518;6.732;2023-07-28T06:05:28;95768.28;;;18.17;100.00
74346;BME280;62776;50.518;6.732;2023-07-28T06:08:23;95769.81;;;18.21;100.00
74346;BME280;62776;50.518;6.732;2023-07-28T06:11:10;95775.69;;;18.26;100.00
74346;BME280;62776;50.518;6.732;2023-07-28T06:13:57;95775.28;;;18.34;100.00
74346;BME280;62776;50.518;6.732;2023-07-28T06:16:49;95783.00;;;18.37;100.00
74346;BME280;62776;50.518;6.732;2023-07-28T06:19:45;95778.25;;;18.44;100.00
74346;BME280;62776;50.518;6.732;2023-07-28T06:22:32;95774.25;;;18.54;100.00
74346;BME280;62776;50.518;6.732;2023-07-28T06:25:25;95784.63;;;18.57;100.00
74346;BME280;62776;50.518;6.732;2023-07-28T06:28:12;95785.53;;;18.56;100.00
74346;BME280;62776;50.518;6.732;2023-07-28T06:31:05;95784.25;;;18.63;100.00
74346;BME280;62776;50.518;6.732;2023-07-28T06:33:51;95786.03;;;18.62;100.00
74346;BME280;62776;50.518;6.732;2023-07-28T06:36:38;95795.06;;;18.74;100.00
74346;BME280;62776;50.518;6.732;2023-07-28T06:39:26;95798.06;;;18.83;100.00
74346;BME280;62776;50.518;6.732;2023-07-28T06:42:13;95798.50;;;18.76;100.00
74346;BME280;62776;50.518;6.732;2023-07-28T06:45:03;95799.41;;;18.75;100.00
74346;BME280;62776;50.518;6.732;2023-07-28T06:47:50;95793.97;;;18.78;100.00
74346;BME280;62776;50.518;6.732;2023-07-28T06:50:37;95802.47;;;18.83;100.00
74346;BME280;62776;50.518;6.732;2023-07-28T06:53:23;95802.75;;;18.94;100.00
74346;BME280;62776;50.518;6.732;2023-07-28T06:56:11;95805.81;;;18.87;100.00
74346;BME280;62776;50.518;6.732;2023-07-28T06:58:58;95808.00;;;18.94;100.00
74346;BME280;62776;50.518;6.732;2023-07-28T07:01:46;95819.13;;;18.99;100.00
74346;BME280;62776;50.518;6.732;2023-07-28T07:04:38;95818.03;;;19.03;100.00
74346;BME280;62776;50.518;6.732;2023-07-28T07:07:33;95809.88;;;19.08;100.00
74346;BME280;62776;50.518;6.732;2023-07-28T07:10:22;95812.66;;;19.20;100.00
74346;BME280;62776;50.518;6.732;2023-07-28T07:13:08;95817.38;;;19.31;100.00
74346;BME280;62776;50.518;6.732;2023-07-28T07:16:00;95822.28;;;19.21;100.00
74346;BME280;62776;50.518;6.732;2023-07-28T07:18:52;95820.22;;;19.26;100.00
74346;BME280;62776;50.518;6.732;2023-07-28T07:21:41;95828.72;;;19.31;100.00
74346;BME280;62776;50.518;6.732;2023-07-28T07:24:29;95830.03;;;19.24;100.00
74346;BME280;62776;50.518;6.732;2023-07-28T07:27:16;95825.28;;;19.31;100.00
74346;BME280;62776;50.518;6.732;2023-07-28T07:30:03;95817.03;;;19.53;100.00
74346;BME280;62776;50.518;6.732;2023-07-28T07:32:53;95820.06;;;19.61;100.00
74346;BME280;62776;50.518;6.732;2023-07-28T07:35:45;95831.78;;;19.71;100.00
74346;BME280;62776;50.518;6.732;2023-07-28T07:38:34;95838.38;;;19.78;100.00
74346;BME280;62776;50.518;6.732;2023-07-28T07:41:23;95833.63;;;19.84;100.00
74346;BME280;62776;50.518;6.732;2023-07-28T07:44:10;95827.31;;;19.87;100.00
74346;BME280;62776;50.518;6.732;2023-07-28T07:47:01;95837.50;;;19.93;100.00
74346;BME280;62776;50.518;6.732;2023-07-28T07:50:00;95839.69;;;20.00;100.00
74346;BME280;62776;50.518;6.732;2023-07-28T07:53:14;95850.53;;;19.96;100.00
74346;BME280;62776;50.518;6.732;2023-07-28T07:56:07;95841.91;;;20.22;100.00
74346;BME280;62776;50.518;6.732;2023-07-28T07:59:12;95845.75;;;20.32;100.00
74346;BME280;62776;50.518;6.732;2023-07-28T08:02:11;95848.38;;;20.46;100.00
74346;BME280;62776;50.518;6.732;2023-07-28T08:04:57;95855.00;;;20.53;100.00
74346;BME280;62776;50.518;6.732;2023-07-28T08:10:59;95855.41;;;20.62;100.00
74346;BME280;62776;50.518;6.732;2023-07-28T08:13:48;95850.97;;;20.76;100.00
74346;BME280;62776;50.518;6.732;2023-07-28T08:16:40;95853.13;;;20.98;100.00
74346;BME280;62776;50.518;6.732;2023-07-28T08:19:32;95843.03;;;21.04;100.00
74346;BME280;62776;50.518;6.732;2023-07-28T08:22:25;95857.00;;;21.21;100.00
74346;BME280;62776;50.518;6.732;2023-07-28T08:25:14;95853.88;;;21.28;100.00
74346;BME280;62776;50.518;6.732;2023-07-28T08:28:19;95855.75;;;21.26;100.00
74346;BME280;62776;50.518;6.732;2023-07-28T08:31:15;95867.19;;;21.27;100.00
74346;BME280;62776;50.518;6.732;2023-07-28T08:34:08;95855.38;;;21.32;100.00
74346;BME280;62776;50.518;6.732;2023-07-28T08:37:03;95865.56;;;21.38;100.00
74346;BME280;62776;50.518;6.732;2023-07-28T08:39:55;95866.28;;;21.54;100.00
74346;BME280;62776;50.518;6.732;2023-07-28T08:43:00;95864.59;;;21.53;100.00
74346;BME280;62776;50.518;6.732;2023-07-28T08:46:38;95865.22;;;21.57;100.00
74346;BME280;62776;50.518;6.732;2023-07-28T08:49:34;95863.94;;;21.76;100.00
74346;BME280;62776;50.518;6.732;2023-07-28T08:52:30;95875.88;;;21.69;100.00
74346;BME280;62776;50.518;6.732;2023-07-28T08:55:26;95873.28;;;21.55;100.00
74346;BME280;62776;50.518;6.732;2023-07-28T08:58:25;95881.22;;;21.55;100.00
74346;BME280;62776;50.518;6.732;2023-07-28T09:01:33;95883.13;;;21.53;100.00
74346;BME280;62776;50.518;6.732;2023-07-28T09:04:31;95879.84;;;21.62;100.00
74346;BME280;62776;50.518;6.732;2023-07-28T09:07:19;95879.34;;;21.70;100.00
74346;BME280;62776;50.518;6.732;2023-07-28T09:10:12;95894.81;;;21.49;100.00
74346;BME280;62776;50.518;6.732;2023-07-28T09:16:52;95882.31;;;21.10;100.00
74346;BME280;62776;50.518;6.732;2023-07-28T09:19:57;95888.72;;;21.06;100.00
74346;BME280;62776;50.518;6.732;2023-07-28T09:22:44;95887.97;;;21.33;100.00
74346;BME280;62776;50.518;6.732;2023-07-28T09:25:59;95891.66;;;21.30;100.00
74346;BME280;62776;50.518;6.732;2023-07-28T09:29:00;95889.47;;;21.37;100.00
74346;BME280;62776;50.518;6.732;2023-07-28T09:31:53;95892.00;;;21.52;100.00
74346;BME280;62776;50.518;6.732;2023-07-28T09:35:08;95892.22;;;21.62;100.00
74346;BME280;62776;50.518;6.732;2023-07-28T09:38:01;95892.47;;;21.86;100.00
74346;BME280;62776;50.518;6.732;2023-07-28T09:41:07;95891.47;;;22.01;100.00
74346;BME280;62776;50.518;6.732;2023-07-28T09:43:54;95888.69;;;22.16;100.00
74346;BME280;62776;50.518;6.732;2023-07-28T09:47:00;95879.81;;;22.30;100.00
74346;BME280;62776;50.518;6.732;2023-07-28T09:49:55;95882.59;;;22.41;100.00
74346;BME280;62776;50.518;6.732;2023-07-28T09:53:04;95890.34;;;22.57;100.00
74346;BME280;62776;50.518;6.732;2023-07-28T09:55:59;95884.91;;;22.58;100.00
74346;BME280;62776;50.518;6.732;2023-07-28T09:59:09;95888.84;;;22.53;100.00
74346;BME280;62776;50.518;6.732;2023-07-28T10:01:58;95881.34;;;22.72;100.00
74346;BME280;62776;50.518;6.732;2023-07-28T10:04:52;95878.09;;;22.94;100.00
74346;BME280;62776;50.518;6.732;2023-07-28T10:07:43;95886.69;;;22.84;100.00
74346;BME280;62776;50.518;6.732;2023-07-28T10:10:33;95888.25;;;22.87;100.00
74346;BME280;62776;50.518;6.732;2023-07-28T10:13:23;95890.28;;;22.83;100.00
74346;BME280;62776;50.518;6.732;2023-07-28T10:16:23;95892.41;;;22.66;100.00
74346;BME280;62776;50.518;6.732;2023-07-28T10:19:23;95903.91;;;22.52;100.00
74346;BME280;62776;50.518;6.732;2023-07-28T10:22:12;95904.94;;;22.50;100.00
74346;BME280;62776;50.518;6.732;2023-07-28T10:25:01;95909.88;;;22.68;100.00
74346;BME280;62776;50.518;6.732;2023-07-28T10:27:55;95902.03;;;22.67;100.00
74346;BME280;62776;50.518;6.732;2023-07-28T10:30:55;95913.13;;;22.59;100.00
74346;BME280;62776;50.518;6.732;2023-07-28T10:34:00;95893.47;;;22.76;100.00
74346;BME280;62776;50.518;6.732;2023-07-28T10:37:02;95903.63;;;22.69;100.00
74346;BME280;62776;50.518;6.732;2023-07-28T10:39:49;95902.47;;;22.99;100.00
74346;BME280;62776;50.518;6.732;2023-07-28T10:42:40;95907.13;;;23.08;100.00
74346;BME280;62776;50.518;6.732;2023-07-28T10:45:31;95901.69;;;23.22;100.00
74346;BME280;62776;50.518;6.732;2023-07-28T10:48:19;95900.09;;;23.44;100.00
74346;BME280;62776;50.518;6.732;2023-07-28T10:51:40;95905.13;;;23.24;100.00
74346;BME280;62776;50.518;6.732;2023-07-28T10:54:31;95912.19;;;23.36;100.00
74346;BME280;62776;50.518;6.732;2023-07-28T10:57:19;95909.97;;;23.30;100.00
74346;BME280;62776;50.518;6.732;2023-07-28T11:00:06;95912.09;;;23.25;100.00
74346;BME280;62776;50.518;6.732;2023-07-28T11:03:02;95909.00;;;23.31;100.00
74346;BME280;62776;50.518;6.732;2023-07-28T11:05:55;95914.56;;;23.15;100.00
74346;BME280;62776;50.518;6.732;2023-07-28T11:08:48;95922.09;;;22.96;100.00
74346;BME280;62776;50.518;6.732;2023-07-28T11:11:46;95915.84;;;22.84;100.00
74346;BME280;62776;50.518;6.732;2023-07-28T11:14:34;95915.28;;;22.92;100.00
74346;BME280;62776;50.518;6.732;2023-07-28T11:17:33;95913.50;;;22.92;100.00
74346;BME280;62776;50.518;6.732;2023-07-28T11:20:23;95908.41;;;22.89;100.00
74346;BME280;62776;50.518;6.732;2023-07-28T11:23:13;95912.75;;;23.03;100.00
74346;BME280;62776;50.518;6.732;2023-07-28T11:25:59;95907.34;;;23.17;100.00
74346;BME280;62776;50.518;6.732;2023-07-28T11:28:49;95915.19;;;23.31;100.00
74346;BME280;62776;50.518;6.732;2023-07-28T11:31:53;95916.84;;;23.32;100.00
74346;BME280;62776;50.518;6.732;2023-07-28T11:34:42;95911.56;;;23.20;100.00
74346;BME280;62776;50.518;6.732;2023-07-28T11:37:41;95914.00;;;23.23;100.00
74346;BME280;62776;50.518;6.732;2023-07-28T11:40:36;95912.22;;;23.23;100.00
74346;BME280;62776;50.518;6.732;2023-07-28T11:43:26;95910.81;;;23.30;100.00
74346;BME280;62776;50.518;6.732;2023-07-28T11:46:36;95915.28;;;23.17;100.00
74346;BME280;62776;50.518;6.732;2023-07-28T11:49:22;95914.75;;;23.25;100.00
74346;BME280;62776;50.518;6.732;2023-07-28T11:52:09;95925.31;;;22.62;100.00
74346;BME280;62776;50.518;6.732;2023-07-28T11:55:10;95932.91;;;21.88;100.00
74346;BME280;62776;50.518;6.732;2023-07-28T11:58:01;95922.56;;;21.56;100.00
74346;BME280;62776;50.518;6.732;2023-07-28T12:00:51;95921.41;;;21.74;100.00
74346;BME280;62776;50.518;6.732;2023-07-28T12:03:47;95924.97;;;21.88;100.00
74346;BME280;62776;50.518;6.732;2023-07-28T12:07:09;95920.44;;;21.90;100.00
74346;BME280;62776;50.518;6.732;2023-07-28T12:10:08;95915.63;;;22.09;100.00
74346;BME280;62776;50.518;6.732;2023-07-28T12:12:56;95913.13;;;22.20;100.00
74346;BME280;62776;50.518;6.732;2023-07-28T12:15:48;95908.16;;;21.89;100.00
74346;BME280;62776;50.518;6.732;2023-07-28T12:18:35;95912.41;;;22.30;100.00
74346;BME280;62776;50.518;6.732;2023-07-28T12:21:28;95917.81;;;22.16;100.00
74346;BME280;62776;50.518;6.732;2023-07-28T12:24:20;95922.84;;;22.07;100.00
74346;BME280;62776;50.518;6.732;2023-07-28T12:27:10;95912.06;;;22.22;100.00
74346;BME280;62776;50.518;6.732;2023-07-28T12:30:03;95907.63;;;22.23;100.00
74346;BME280;62776;50.518;6.732;2023-07-28T12:33:11;95910.78;;;22.03;100.00
74346;BME280;62776;50.518;6.732;2023-07-28T12:36:05;95910.34;;;22.09;100.00
74346;BME280;62776;50.518;6.732;2023-07-28T12:39:03;95916.56;;;21.81;100.00
74346;BME280;62776;50.518;6.732;2023-07-28T12:41:49;95919.50;;;21.76;100.00
74346;BME280;62776;50.518;6.732;2023-07-28T12:44:45;95918.03;;;21.72;100.00
74346;BME280;62776;50.518;6.732;2023-07-28T12:47:32;95924.44;;;21.68;100.00
74346;BME280;62776;50.518;6.732;2023-07-28T12:50:20;95921.97;;;21.65;100.00
74346;BME280;62776;50.518;6.732;2023-07-28T12:53:12;95928.91;;;21.54;100.00
74346;BME280;62776;50.518;6.732;2023-07-28T12:56:00;95932.50;;;21.67;100.00
74346;BME280;62776;50.518;6.732;2023-07-28T12:58:47;95930.28;;;21.88;100.00
74346;BME280;62776;50.518;6.732;2023-07-28T13:01:38;95925.59;;;22.05;100.00
74346;BME280;62776;50.518;6.732;2023-07-28T13:04:24;95928.25;;;22.05;100.00
74346;BME280;62776;50.518;6.732;2023-07-28T13:07:16;95925.47;;;22.07;100.00
74346;BME280;62776;50.518;6.732;2023-07-28T13:10:07;95924.50;;;22.22;100.00
74346;BME280;62776;50.518;6.732;2023-07-28T13:12:58;95928.22;;;22.32;100.00
74346;BME280;62776;50.518;6.732;2023-07-28T13:15:50;95925.91;;;22.40;100.00
74346;BME280;62776;50.518;6.732;2023-07-28T13:18:55;95926.47;;;22.58;100.00
74346;BME280;62776;50.518;6.732;2023-07-28T13:21:45;95925.47;;;22.73;100.00
74346;BME280;62776;50.518;6.732;2023-07-28T13:24:35;95930.03;;;22.83;100.00
74346;BME280;62776;50.518;6.732;2023-07-28T13:27:27;95928.66;;;22.90;100.00
74346;BME280;62776;50.518;6.732;2023-07-28T13:30:22;95923.03;;;22.95;100.00
74346;BME280;62776;50.518;6.732;2023-07-28T13:33:10;95927.28;;;23.23;100.00
74346;BME280;62776;50.518;6.732;2023-07-28T13:36:02;95929.59;;;23.02;100.00
74346;BME280;62776;50.518;6.732;2023-07-28T13:39:11;95922.09;;;23.09;100.00
74346;BME280;62776;50.518;6.732;2023-07-28T13:42:12;95928.81;;;23.63;100.00
74346;BME280;62776;50.518;6.732;2023-07-28T13:45:08;95922.53;;;24.13;100.00
74346;BME280;62776;50.518;6.732;2023-07-28T13:47:55;95921.13;;;24.55;100.00
74346;BME280;62776;50.518;6.732;2023-07-28T13:50:41;95917.56;;;24.78;100.00
74346;BME280;62776;50.518;6.732;2023-07-28T13:53:42;95916.09;;;25.20;100.00
74346;BME280;62776;50.518;6.732;2023-07-28T13:56:34;95914.50;;;25.06;98.52
74346;BME280;62776;50.518;6.732;2023-07-28T13:59:32;95916.72;;;25.35;99.67
74346;BME280;62776;50.518;6.732;2023-07-28T14:02:37;95918.16;;;25.28;100.00
74346;BME280;62776;50.518;6.732;2023-07-28T14:05:24;95909.69;;;25.34;100.00
74346;BME280;62776;50.518;6.732;2023-07-28T14:08:13;95917.63;;;25.00;95.50
74346;BME280;62776;50.518;6.732;2023-07-28T14:10:59;95908.44;;;24.82;99.87
74346;BME280;62776;50.518;6.732;2023-07-28T14:13:49;95907.84;;;24.90;99.93
74346;BME280;62776;50.518;6.732;2023-07-28T14:16:38;95899.78;;;25.02;98.99
74346;BME280;62776;50.518;6.732;2023-07-28T14:19:30;95898.56;;;25.17;94.76
74346;BME280;62776;50.518;6.732;2023-07-28T14:22:17;95901.44;;;25.92;90.71
74346;BME280;62776;50.518;6.732;2023-07-28T14:25:08;95904.78;;;26.16;85.89
74346;BME280;62776;50.518;6.732;2023-07-28T14:28:05;95878.81;;;27.63;74.91
74346;BME280;62776;50.518;6.732;2023-07-28T14:30:52;95898.13;;;27.86;69.59
74346;BME280;62776;50.518;6.732;2023-07-28T14:33:41;95900.88;;;28.24;64.54
74346;BME280;62776;50.518;6.732;2023-07-28T14:36:30;95893.94;;;29.17;61.70
74346;BME280;62776;50.518;6.732;2023-07-28T14:39:20;95889.19;;;30.30;55.78
74346;BME280;62776;50.518;6.732;2023-07-28T14:42:09;95882.66;;;30.95;52.26
74346;BME280;62776;50.518;6.732;2023-07-28T14:44:57;95888.28;;;31.35;51.31
74346;BME280;62776;50.518;6.732;2023-07-28T14:47:48;95893.16;;;30.08;52.18
74346;BME280;62776;50.518;6.732;2023-07-28T14:50:42;95892.22;;;30.00;54.17
74346;BME280;62776;50.518;6.732;2023-07-28T14:53:38;95901.63;;;30.31;50.84
74346;BME280;62776;50.518;6.732;2023-07-28T14:56:26;95883.91;;;31.09;49.68
74346;BME280;62776;50.518;6.732;2023-07-28T14:59:17;95896.84;;;30.25;50.71
74346;BME280;62776;50.518;6.732;2023-07-28T15:02:07;95898.91;;;29.22;53.53
74346;BME280;62776;50.518;6.732;2023-07-28T15:04:55;95893.84;;;29.00;55.75
74346;BME280;62776;50.518;6.732;2023-07-28T15:07:44;95889.50;;;30.09;52.71
74346;BME280;62776;50.518;6.732;2023-07-28T15:10:30;95883.47;;;29.43;53.47
74346;BME280;62776;50.518;6.732;2023-07-28T15:13:18;95894.16;;;28.58;60.07